Time;durP1;ratioP1;P1;durP2;ratioP2;P2;SDS_P1;SDS_P2;PMS_P1;PMS_P2;Temp;Humidity;BMP_temperature;BMP_pressure;BME280_temperature;BME280_humidity;BME280_pressure;Samples;Min_cycle;Max_cycle;Signal;HPM_P1;HPM_P2
2022/06/28 00:00:24;;;;;;;;;;;;;;;29.69;46.93;98574.00;2091329;28;19975;-50
2022/06/28 00:01:27;;;;;;;;;;;;;;;29.68;46.85;98572.38;2094315;28;20809;-47
2022/06/28 00:02:28;;;;;;;;;;;;;;;29.68;46.85;98575.94;2093290;28;19924;-47
2022/06/28 00:03:29;;;;;;;;;;;;;;;29.68;46.72;98569.66;2092548;28;19932;-46
2022/06/28 00:04:30;;;;;;;;;;;;;;;29.67;46.84;98574.31;2093031;28;19931;-48
2022/06/28 00:05:31;;;;;;;;;;;;;;;29.69;46.67;98576.75;2093984;28;20942;-50
2022/06/28 00:06:32;;;;;;;;;;;;;;;29.68;46.80;98580.59;2093871;28;19928;-46
2022/06/28 00:07:34;;;;;;;;;;;;;;;29.67;46.96;98574.31;2091755;28;19925;-48
2022/06/28 00:08:34;;;;;;;;;;;;;;;29.67;46.65;98571.56;2084587;28;20024;-48
2022/06/28 00:09:36;;;;;;;;;;;;;;;29.67;47.05;98573.47;2094015;28;20479;-49
2022/06/28 00:10:36;;;;;;;;;;;;;;;29.68;46.74;98575.94;2091322;28;19940;-49
2022/06/28 00:11:38;;;;;;;;;;;;;;;29.67;46.63;98577.03;2092305;28;20614;-46
2022/06/28 00:12:39;;;;;;;;;;;;;;;29.69;46.64;98576.75;2090943;28;19936;-48
2022/06/28 00:13:41;;;;;;;;;;;;;;;29.67;46.74;98562.53;2088313;28;20697;-53
2022/06/28 00:16:06;;;;;;;;;;;;;;;29.67;46.91;98562.53;2094159;28;20390;-49
2022/06/28 00:17:08;;;;;;;;;;;;;;;29.67;46.77;98557.06;2093915;28;20348;-47
2022/06/28 00:18:10;;;;;;;;;;;;;;;29.68;46.94;98553.25;2092617;28;19929;-48
2022/06/28 00:19:10;;;;;;;;;;;;;;;29.67;46.95;98557.06;2095229;28;19949;-48
2022/06/28 00:20:12;;;;;;;;;;;;;;;29.68;46.78;98561.44;2092253;28;20778;-48
2022/06/28 00:21:13;;;;;;;;;;;;;;;29.67;46.59;98552.44;2093521;28;19931;-50
2022/06/28 00:22:14;;;;;;;;;;;;;;;29.66;46.77;98549.97;2084819;28;19964;-49
2022/06/28 00:23:15;;;;;;;;;;;;;;;29.66;46.74;98553.53;2087526;28;19928;-49
2022/06/28 00:24:16;;;;;;;;;;;;;;;29.67;46.75;98548.88;2091497;28;19925;-50
2022/06/28 00:25:17;;;;;;;;;;;;;;;29.66;46.82;98541.78;2092905;28;19932;-49
2022/06/28 00:26:19;;;;;;;;;;;;;;;29.66;46.67;98539.84;2093017;28;20314;-50
2022/06/28 00:27:19;;;;;;;;;;;;;;;29.66;46.72;98539.03;2093906;28;19974;-47
2022/06/28 00:28:21;;;;;;;;;;;;;;;29.66;46.69;98539.03;2089558;28;19932;-51
2022/06/28 00:29:22;;;;;;;;;;;;;;;29.66;46.75;98537.13;2092169;28;19929;-49
2022/06/28 00:30:23;;;;;;;;;;;;;;;29.67;46.75;98535.19;2091654;28;19960;-49
2022/06/28 00:31:25;;;;;;;;;;;;;;;29.68;46.65;98525.91;2093760;28;19928;-48
2022/06/28 00:32:28;;;;;;;;;;;;;;;29.66;46.79;98525.38;2093038;28;19929;-50
2022/06/28 00:33:28;;;;;;;;;;;;;;;29.66;46.76;98515.25;2093604;28;19924;-52
2022/06/28 00:34:30;;;;;;;;;;;;;;;29.65;46.82;98510.91;2094000;28;19924;-49
2022/06/28 00:35:31;;;;;;;;;;;;;;;29.65;46.54;98510.91;2093971;28;20306;-50
2022/06/28 00:36:33;;;;;;;;;;;;;;;29.65;46.89;98510.09;2094152;28;20015;-48
2022/06/28 00:37:33;;;;;;;;;;;;;;;29.65;46.70;98508.16;2093732;28;20011;-49
2022/06/28 00:38:35;;;;;;;;;;;;;;;29.65;46.84;98513.63;2086622;28;20418;-46
2022/06/28 00:39:35;;;;;;;;;;;;;;;29.66;46.76;98511.72;2091643;28;19936;-48
2022/06/28 00:40:42;;;;;;;;;;;;;;;29.65;46.74;98508.16;2092225;28;20314;-52
2022/06/28 00:41:43;;;;;;;;;;;;;;;29.64;46.85;98513.91;2093752;28;20395;-50
2022/06/28 00:42:45;;;;;;;;;;;;;;;29.65;46.85;98515.53;2093779;28;20374;-51
2022/06/28 00:43:46;;;;;;;;;;;;;;;29.65;46.92;98516.38;2093962;28;19925;-51
2022/06/28 00:44:47;;;;;;;;;;;;;;;29.65;46.84;98510.91;2093427;28;19928;-49
2022/06/28 00:45:48;;;;;;;;;;;;;;;29.64;46.88;98508.44;2091186;28;19924;-49
2022/06/28 00:46:50;;;;;;;;;;;;;;;29.65;46.93;98515.53;2094315;28;19931;-49
2022/06/28 00:47:52;;;;;;;;;;;;;;;29.65;46.85;98512.81;2092003;28;19924;-52
2022/06/28 00:48:54;;;;;;;;;;;;;;;29.65;46.69;98518.28;2093665;28;19929;-49
2022/06/28 00:49:55;;;;;;;;;;;;;;;29.64;46.90;98524.81;2093858;28;19982;-51
2022/06/28 00:50:57;;;;;;;;;;;;;;;29.64;46.78;98528.38;2092529;28;19928;-51
2022/06/28 00:52:02;;;;;;;;;;;;;;;29.65;46.82;98526.47;2092398;28;20403;-51
2022/06/28 00:53:05;;;;;;;;;;;;;;;29.64;46.88;98527.56;2089827;28;19928;-51
2022/06/28 00:54:06;;;;;;;;;;;;;;;29.64;46.77;98530.28;2089092;28;19932;-48
2022/06/28 00:55:08;;;;;;;;;;;;;;;29.65;46.89;98540.16;2093084;28;19959;-48
2022/06/28 00:56:08;;;;;;;;;;;;;;;29.64;46.82;98541.22;2091936;28;20560;-48
2022/06/28 00:57:10;;;;;;;;;;;;;;;29.64;46.93;98546.69;2091473;28;19932;-53
2022/06/28 00:58:10;;;;;;;;;;;;;;;29.64;46.95;98546.69;2088100;28;20586;-51
2022/06/28 00:59:12;;;;;;;;;;;;;;;29.62;46.90;98553.22;2093345;28;19928;-49
2022/06/28 01:00:13;;;;;;;;;;;;;;;29.62;46.76;98553.22;2092267;28;19925;-52
2022/06/28 01:01:15;;;;;;;;;;;;;;;29.63;46.76;98556.81;2091519;28;19983;-48
2022/06/28 01:02:15;;;;;;;;;;;;;;;29.64;46.79;98561.16;2089412;28;19929;-50
2022/06/28 01:03:19;;;;;;;;;;;;;;;29.63;46.78;98562.28;2091949;28;19928;-52
2022/06/28 01:04:20;;;;;;;;;;;;;;;29.62;46.85;98561.44;2090307;28;19924;-47
2022/06/28 01:05:21;;;;;;;;;;;;;;;29.62;46.72;98566.91;2085524;28;19935;-51
2022/06/28 01:06:22;;;;;;;;;;;;;;;29.63;46.89;98565.00;2092629;28;19950;-45
2022/06/28 01:07:24;;;;;;;;;;;;;;;29.61;46.83;98558.97;2092088;28;19925;-49
2022/06/28 01:08:25;;;;;;;;;;;;;;;29.62;46.87;98560.63;2087851;28;20346;-49
2022/06/28 01:09:27;;;;;;;;;;;;;;;29.61;46.86;98553.50;2091276;28;20003;-47
2022/06/28 01:10:27;;;;;;;;;;;;;;;29.61;46.71;98554.34;2091461;28;20586;-47
2022/06/28 01:11:29;;;;;;;;;;;;;;;29.61;46.83;98559.81;2093188;28;20012;-48
2022/06/28 01:12:30;;;;;;;;;;;;;;;29.62;46.77;98560.63;2092084;28;19947;-49
2022/06/28 01:13:31;;;;;;;;;;;;;;;29.61;46.99;98558.97;2093049;28;20271;-47
2022/06/28 01:14:32;;;;;;;;;;;;;;;29.61;46.68;98554.34;2088759;28;19936;-49
2022/06/28 01:15:34;;;;;;;;;;;;;;;29.62;46.82;98547.78;2088992;28;20954;-46
2022/06/28 01:16:35;;;;;;;;;;;;;;;29.62;46.89;98552.41;2089194;28;19935;-48
2022/06/28 01:17:37;;;;;;;;;;;;;;;29.61;46.99;98545.28;2091666;28;21439;-47
2022/06/28 01:18:39;;;;;;;;;;;;;;;29.61;46.92;98540.69;2090361;28;20255;-46
2022/06/28 01:19:40;;;;;;;;;;;;;;;29.60;46.88;98535.47;2090559;28;19951;-48
2022/06/28 01:20:42;;;;;;;;;;;;;;;29.60;46.79;98535.47;2090386;28;19933;-50
2022/06/28 01:21:44;;;;;;;;;;;;;;;29.60;46.86;98530.00;2091338;28;20445;-50
2022/06/28 01:22:46;;;;;;;;;;;;;;;29.61;46.80;98531.63;2088797;28;19936;-48
2022/06/28 01:23:48;;;;;;;;;;;;;;;29.60;46.96;98538.22;2087853;28;19929;-47
2022/06/28 01:24:49;;;;;;;;;;;;;;;29.59;46.85;98526.47;2088878;28;19955;-50
2022/06/28 01:25:51;;;;;;;;;;;;;;;29.60;46.81;98524.53;2090209;28;19932;-48
2022/06/28 01:26:53;;;;;;;;;;;;;;;29.60;47.01;98527.28;2087319;28;20014;-50
2022/06/28 01:27:54;;;;;;;;;;;;;;;29.60;46.91;98530.00;2091199;28;19925;-50
2022/06/28 01:28:55;;;;;;;;;;;;;;;29.59;46.85;98529.19;2084287;28;19933;-51
2022/06/28 01:29:56;;;;;;;;;;;;;;;29.59;46.94;98531.13;2091289;28;19932;-49
2022/06/28 01:30:58;;;;;;;;;;;;;;;29.59;46.92;98529.19;2088280;28;19925;-49
2022/06/28 01:31:58;;;;;;;;;;;;;;;29.59;47.06;98531.13;2088614;28;19929;-50
2022/06/28 01:33:00;;;;;;;;;;;;;;;29.59;46.84;98521.00;2087192;28;20019;-51
2022/06/28 01:34:01;;;;;;;;;;;;;;;29.58;46.88;98522.06;2089934;28;20873;-50
2022/06/28 01:35:03;;;;;;;;;;;;;;;29.59;46.71;98517.44;2090277;28;20345;-48
2022/06/28 01:36:04;;;;;;;;;;;;;;;29.58;46.82;98515.78;2090502;28;19928;-49
2022/06/28 01:37:06;;;;;;;;;;;;;;;29.59;46.80;98514.72;2089772;28;19947;-48
2022/06/28 01:38:10;;;;;;;;;;;;;;;29.58;47.06;98510.34;2088050;28;19975;-52
2022/06/28 01:39:11;;;;;;;;;;;;;;;29.58;46.88;98513.06;2089075;28;19928;-47
2022/06/28 01:40:12;;;;;;;;;;;;;;;29.58;46.86;98516.59;2089273;28;20295;-49
2022/06/28 01:41:32;;;;;;;;;;;;;;;29.58;46.81;98511.16;2090175;28;19931;-50
2022/06/28 01:42:33;;;;;;;;;;;;;;;29.57;47.01;98495.84;2090807;28;20038;-49
2022/06/28 01:43:36;;;;;;;;;;;;;;;29.58;46.87;98485.72;2089608;28;19943;-51
2022/06/28 01:44:39;;;;;;;;;;;;;;;29.58;46.99;98483.00;2090724;28;20097;-49
2022/06/28 01:45:39;;;;;;;;;;;;;;;29.57;46.92;98484.13;2086507;28;20508;-50
2022/06/28 01:46:41;;;;;;;;;;;;;;;29.56;46.93;98480.56;2088149;28;19933;-48
2022/06/28 01:47:44;;;;;;;;;;;;;;;29.55;46.94;98473.44;2091180;28;19935;-48
2022/06/28 01:48:45;;;;;;;;;;;;;;;29.57;46.86;98474.00;2091789;28;20027;-48
2022/06/28 01:49:46;;;;;;;;;;;;;;;29.57;46.73;98476.72;2091025;28;19935;-50
2022/06/28 01:50:49;;;;;;;;;;;;;;;29.57;46.90;98473.19;2089824;28;19929;-48
2022/06/28 01:51:50;;;;;;;;;;;;;;;29.57;46.85;98476.72;2091104;28;19932;-47
2022/06/28 01:52:52;;;;;;;;;;;;;;;29.57;46.86;98481.38;2092724;28;19929;-46
2022/06/28 01:53:54;;;;;;;;;;;;;;;29.57;47.02;98487.66;2087378;28;19985;-51
2022/06/28 01:54:56;;;;;;;;;;;;;;;29.56;46.78;98494.22;2090189;28;20384;-49
2022/06/28 01:55:56;;;;;;;;;;;;;;;29.57;46.90;98497.78;2090326;28;19936;-47
2022/06/28 01:56:58;;;;;;;;;;;;;;;29.56;46.98;98490.66;2090395;28;19950;-50
2022/06/28 01:57:58;;;;;;;;;;;;;;;29.57;46.72;98498.59;2088859;28;19931;-48
2022/06/28 01:59:00;;;;;;;;;;;;;;;29.57;46.96;98498.59;2090925;28;20046;-48
2022/06/28 02:00:00;;;;;;;;;;;;;;;29.54;46.81;98490.94;2088116;28;20291;-50
2022/06/28 02:01:02;;;;;;;;;;;;;;;29.55;47.05;98492.56;2088525;28;19924;-49
2022/06/28 02:02:03;;;;;;;;;;;;;;;29.55;46.86;98489.84;2091151;28;19928;-48
2022/06/28 02:03:05;;;;;;;;;;;;;;;29.56;46.82;98486.03;2090315;28;20012;-48
2022/06/28 02:04:16;;;;;;;;;;;;;;;29.56;46.80;98488.75;2089264;28;20008;-49
2022/06/28 02:05:18;;;;;;;;;;;;;;;29.55;46.76;98489.03;2089940;28;19931;-49
2022/06/28 02:06:19;;;;;;;;;;;;;;;29.55;47.08;98486.31;2089228;28;20693;-51
2022/06/28 02:07:20;;;;;;;;;;;;;;;29.54;46.90;98474.56;2090811;28;19928;-50
2022/06/28 02:08:21;;;;;;;;;;;;;;;29.54;46.99;98482.75;2087607;28;20786;-48
2022/06/28 02:09:24;;;;;;;;;;;;;;;29.54;46.96;98482.75;2074836;28;20051;-51
2022/06/28 02:10:25;;;;;;;;;;;;;;;29.55;47.05;98480.84;2086884;28;19933;-51
2022/06/28 02:11:27;;;;;;;;;;;;;;;29.54;46.87;98471.00;2089132;28;19928;-50
2022/06/28 02:12:28;;;;;;;;;;;;;;;29.55;46.93;98469.91;2089426;28;19928;-47
2022/06/28 02:13:30;;;;;;;;;;;;;;;29.53;46.84;98472.94;2091023;28;20454;-49
2022/06/28 02:14:31;;;;;;;;;;;;;;;29.54;46.84;98462.81;2088941;28;19928;-49
2022/06/28 02:15:32;;;;;;;;;;;;;;;29.54;46.87;98460.09;2086990;28;19954;-46
2022/06/28 02:16:33;;;;;;;;;;;;;;;29.54;46.97;98460.09;2085199;28;19932;-46
2022/06/28 02:17:34;;;;;;;;;;;;;;;29.54;47.02;98465.53;2091314;28;20592;-47
2022/06/28 02:18:35;;;;;;;;;;;;;;;29.53;47.08;98464.72;2090959;28;20023;-49
2022/06/28 02:19:37;;;;;;;;;;;;;;;29.53;47.10;98464.72;2091581;28;19940;-49
2022/06/28 02:20:37;;;;;;;;;;;;;;;29.53;46.91;98458.44;2091694;28;19952;-46
2022/06/28 02:21:40;;;;;;;;;;;;;;;29.53;46.89;98461.16;2091300;28;19946;-50
2022/06/28 02:22:40;;;;;;;;;;;;;;;29.52;46.92;98465.81;2089623;28;20025;-50
2022/06/28 02:23:42;;;;;;;;;;;;;;;29.53;46.85;98461.16;2083927;28;19931;-51
2022/06/28 02:24:44;;;;;;;;;;;;;;;29.52;46.86;98441.22;2087614;28;20375;-51
2022/06/28 02:25:46;;;;;;;;;;;;;;;29.52;46.84;98449.41;2089731;28;19931;-49
2022/06/28 02:26:46;;;;;;;;;;;;;;;29.52;46.79;98449.41;2090025;28;19936;-46
2022/06/28 02:27:48;;;;;;;;;;;;;;;29.52;46.82;98465.00;2089998;28;20019;-49
2022/06/28 02:28:48;;;;;;;;;;;;;;;29.52;46.89;98474.00;2090403;28;19940;-47
2022/06/28 02:29:50;;;;;;;;;;;;;;;29.53;47.02;98470.19;2084627;28;19954;-51
2022/06/28 02:30:51;;;;;;;;;;;;;;;29.53;46.88;98466.63;2090771;28;19964;-47
2022/06/28 02:31:52;;;;;;;;;;;;;;;29.53;47.10;98472.94;2089532;28;19955;-50
2022/06/28 02:32:53;;;;;;;;;;;;;;;29.52;47.03;98468.53;2086206;28;19936;-48
2022/06/28 02:33:54;;;;;;;;;;;;;;;29.52;47.04;98465.00;2084384;28;19929;-52
2022/06/28 02:40:23;;;;;;;;;;;;;;;29.51;46.97;98475.13;2087904;28;19928;-50
2022/06/28 02:41:23;;;;;;;;;;;;;;;29.51;46.78;98477.84;2088319;28;19928;-47
2022/06/28 02:42:25;;;;;;;;;;;;;;;29.51;47.06;98477.84;2088186;28;19934;-51
2022/06/28 02:43:25;;;;;;;;;;;;;;;29.50;46.93;98478.94;2089534;28;19932;-48
2022/06/28 02:44:27;;;;;;;;;;;;;;;29.50;47.01;98481.66;2090413;28;19929;-50
2022/06/28 02:45:28;;;;;;;;;;;;;;;29.50;46.90;98476.19;2087944;28;20016;-49
2022/06/28 02:46:30;;;;;;;;;;;;;;;29.50;46.86;98476.19;2091515;28;20518;-46
2022/06/28 02:47:30;;;;;;;;;;;;;;;29.51;46.91;98477.03;2088946;28;19929;-51
2022/06/28 02:48:32;;;;;;;;;;;;;;;29.50;46.97;98473.47;2087042;28;21448;-50
2022/06/28 02:49:32;;;;;;;;;;;;;;;29.50;46.87;98476.19;2085858;28;20276;-48
2022/06/28 02:50:34;;;;;;;;;;;;;;;29.50;46.84;98475.38;2090590;28;19995;-50
2022/06/28 02:51:35;;;;;;;;;;;;;;;29.50;46.80;98476.19;2089449;28;19932;-49
2022/06/28 02:52:36;;;;;;;;;;;;;;;29.50;47.13;98480.84;2087417;28;19941;-49
2022/06/28 02:53:37;;;;;;;;;;;;;;;29.49;46.87;98479.22;2085792;28;20339;-47
2022/06/28 02:54:39;;;;;;;;;;;;;;;29.49;46.98;98474.56;2090155;28;19924;-49
2022/06/28 02:55:41;;;;;;;;;;;;;;;29.48;46.85;98478.41;2085899;28;19928;-48
2022/06/28 02:56:44;;;;;;;;;;;;;;;29.49;46.98;98485.50;2089654;28;20382;-47
2022/06/28 02:57:46;;;;;;;;;;;;;;;29.49;47.11;98484.69;2090361;28;19924;-49
2022/06/28 02:58:47;;;;;;;;;;;;;;;29.49;46.93;98482.78;2088853;28;19966;-52
2022/06/28 02:59:48;;;;;;;;;;;;;;;29.49;46.83;98468.28;2090364;28;19935;-50
2022/06/28 03:00:49;;;;;;;;;;;;;;;29.48;46.94;98472.94;2090180;28;19928;-46
2022/06/28 03:01:51;;;;;;;;;;;;;;;29.47;46.95;98468.56;2089859;28;20643;-48
2022/06/28 03:02:51;;;;;;;;;;;;;;;29.47;46.85;98468.56;2090316;28;20517;-49
2022/06/28 03:03:53;;;;;;;;;;;;;;;29.47;46.94;98463.09;2091003;28;19935;-50
2022/06/28 03:04:53;;;;;;;;;;;;;;;29.47;46.81;98460.38;2086636;28;19939;-50
2022/06/28 03:05:55;;;;;;;;;;;;;;;29.47;46.92;98459.56;2084374;28;20051;-47
2022/06/28 03:06:55;;;;;;;;;;;;;;;29.47;46.96;98454.09;2089250;28;19932;-49
2022/06/28 03:07:57;;;;;;;;;;;;;;;29.47;47.08;98454.91;2085871;28;20055;-46
2022/06/28 03:08:57;;;;;;;;;;;;;;;29.47;46.98;98438.50;2086937;28;19939;-48
2022/06/28 03:09:59;;;;;;;;;;;;;;;29.46;47.01;98447.81;2090201;28;20571;-48
2022/06/28 03:11:01;;;;;;;;;;;;;;;29.47;47.00;98437.69;2088879;28;19928;-50
2022/06/28 03:12:05;;;;;;;;;;;;;;;29.46;47.02;98430.59;2090603;28;19928;-48
2022/06/28 03:13:06;;;;;;;;;;;;;;;29.46;47.02;98427.88;2086643;28;19928;-50
2022/06/28 03:14:07;;;;;;;;;;;;;;;29.47;46.87;98424.03;2092095;28;19975;-50
2022/06/28 03:15:09;;;;;;;;;;;;;;;29.46;47.07;98419.66;2086798;28;19928;-49
2022/06/28 03:16:10;;;;;;;;;;;;;;;29.47;47.13;98426.75;2090739;28;19924;-49
2022/06/28 03:17:11;;;;;;;;;;;;;;;29.46;46.96;98431.41;2085686;28;19928;-51
2022/06/28 03:18:12;;;;;;;;;;;;;;;29.46;46.99;98427.88;2091097;28;19939;-48
2022/06/28 03:19:13;;;;;;;;;;;;;;;29.46;46.74;98425.13;2088818;28;19929;-48
2022/06/28 03:20:14;;;;;;;;;;;;;;;29.45;47.03;98421.59;2091191;28;19932;-47
2022/06/28 03:21:15;;;;;;;;;;;;;;;29.45;46.98;98421.59;2091512;28;19928;-49
2022/06/28 03:22:17;;;;;;;;;;;;;;;29.46;46.95;98420.50;2089000;28;19968;-48
2022/06/28 03:23:17;;;;;;;;;;;;;;;29.46;46.97;98425.94;2087839;28;19928;-47
2022/06/28 03:24:19;;;;;;;;;;;;;;;29.46;46.95;98425.13;2091640;28;19930;-48
2022/06/28 03:25:19;;;;;;;;;;;;;;;29.46;46.86;98417.75;2090420;28;21416;-49
2022/06/28 03:26:23;;;;;;;;;;;;;;;29.46;47.21;98422.41;2091109;28;20955;-47
2022/06/28 03:27:23;;;;;;;;;;;;;;;29.47;46.87;98424.03;2090398;28;19963;-47
2022/06/28 03:28:25;;;;;;;;;;;;;;;29.45;46.94;98415.28;2092152;28;20370;-52
2022/06/28 03:29:25;;;;;;;;;;;;;;;29.46;46.93;98411.47;2093747;28;19928;-49
2022/06/28 03:30:27;;;;;;;;;;;;;;;29.45;46.87;98407.09;2090725;28;20294;-49
2022/06/28 03:31:27;;;;;;;;;;;;;;;29.45;47.05;98413.41;2093020;28;19940;-47
2022/06/28 03:32:29;;;;;;;;;;;;;;;29.44;47.08;98406.28;2091394;28;19946;-50
2022/06/28 03:33:29;;;;;;;;;;;;;;;29.44;46.91;98417.22;2090734;28;19928;-48
2022/06/28 03:34:31;;;;;;;;;;;;;;;29.44;46.88;98417.22;2091521;28;19935;-51
2022/06/28 03:35:31;;;;;;;;;;;;;;;29.45;46.97;98424.31;2092616;28;20554;-50
2022/06/28 03:36:33;;;;;;;;;;;;;;;29.44;47.03;98422.66;2093094;28;19940;-50
2022/06/28 03:37:34;;;;;;;;;;;;;;;29.45;47.07;98434.41;2093485;28;19935;-49
2022/06/28 03:38:35;;;;;;;;;;;;;;;29.45;47.15;98435.25;2087830;28;20027;-48
2022/06/28 03:39:36;;;;;;;;;;;;;;;29.44;47.08;98446.44;2090765;28;20255;-49
2022/06/28 03:40:38;;;;;;;;;;;;;;;29.44;47.04;98450.00;2088171;28;19929;-50
2022/06/28 03:41:39;;;;;;;;;;;;;;;29.43;47.05;98456.56;2092397;28;19931;-48
2022/06/28 03:42:41;;;;;;;;;;;;;;;29.43;47.04;98448.38;2092968;28;20028;-50
2022/06/28 03:43:42;;;;;;;;;;;;;;;29.43;46.95;98445.63;2092687;28;19928;-48
2022/06/28 03:44:43;;;;;;;;;;;;;;;29.43;47.10;98442.91;2093044;28;19988;-49
2022/06/28 03:45:44;;;;;;;;;;;;;;;29.43;46.92;98451.09;2092759;28;20235;-48
2022/06/28 03:46:45;;;;;;;;;;;;;;;29.43;47.02;98455.75;2091064;28;19964;-50
2022/06/28 03:47:46;;;;;;;;;;;;;;;29.41;46.97;98453.28;2092687;28;20359;-51
2022/06/28 03:48:48;;;;;;;;;;;;;;;29.43;47.05;98466.69;2092669;28;19974;-48
2022/06/28 03:49:48;;;;;;;;;;;;;;;29.42;47.06;98473.22;2090830;28;19929;-49
2022/06/28 03:50:50;;;;;;;;;;;;;;;29.44;47.01;98476.50;2091012;28;19929;-49
2022/06/28 03:51:50;;;;;;;;;;;;;;;29.42;47.06;98476.81;2092348;28;19924;-51
2022/06/28 03:52:52;;;;;;;;;;;;;;;29.42;46.99;98476.81;2092580;28;19930;-50
2022/06/28 03:53:53;;;;;;;;;;;;;;;29.42;47.09;98468.59;2092033;28;20448;-50
2022/06/28 03:54:54;;;;;;;;;;;;;;;29.43;46.94;98469.41;2088486;28;20008;-48
2022/06/28 03:55:55;;;;;;;;;;;;;;;29.42;47.00;98473.22;2093754;28;19933;-49
2022/06/28 03:56:58;;;;;;;;;;;;;;;29.42;47.05;98474.06;2092575;28;19933;-48
2022/06/28 03:57:58;;;;;;;;;;;;;;;29.42;47.08;98485.00;2093927;28;20409;-46
2022/06/28 03:59:00;;;;;;;;;;;;;;;29.41;47.14;98483.34;2094589;28;19932;-50
2022/06/28 04:00:01;;;;;;;;;;;;;;;29.42;46.93;98481.41;2093408;28;19943;-49
2022/06/28 04:01:03;;;;;;;;;;;;;;;29.40;47.14;98474.34;2094507;28;19933;-49
2022/06/28 04:02:04;;;;;;;;;;;;;;;29.41;47.00;98483.34;2093949;28;19925;-49
2022/06/28 04:03:05;;;;;;;;;;;;;;;29.40;47.07;98478.97;2092179;28;19966;-48
2022/06/28 04:04:06;;;;;;;;;;;;;;;29.40;46.89;98490.72;2092883;28;19924;-49
2022/06/28 04:05:08;;;;;;;;;;;;;;;29.40;47.11;98490.72;2093436;28;19928;-47
2022/06/28 04:06:08;;;;;;;;;;;;;;;29.40;47.05;98488.00;2089642;28;20298;-46
2022/06/28 04:07:10;;;;;;;;;;;;;;;29.41;47.10;98491.53;2087438;28;19928;-50
2022/06/28 04:08:10;;;;;;;;;;;;;;;29.40;46.97;98489.91;2091356;28;19936;-47
2022/06/28 04:09:12;;;;;;;;;;;;;;;29.40;47.01;98487.19;2093017;28;19950;-51
2022/06/28 04:10:13;;;;;;;;;;;;;;;29.40;47.04;98485.25;2092745;28;19931;-48
2022/06/28 04:11:17;;;;;;;;;;;;;;;29.39;47.08;98474.59;2092094;28;19979;-48
2022/06/28 04:12:19;;;;;;;;;;;;;;;29.40;47.03;98476.25;2090935;28;20040;-50
2022/06/28 04:13:20;;;;;;;;;;;;;;;29.39;46.88;98460.94;2091286;28;19933;-53
2022/06/28 04:14:22;;;;;;;;;;;;;;;29.40;46.97;98455.22;2090494;28;19925;-52
2022/06/28 04:15:23;;;;;;;;;;;;;;;29.40;47.11;98446.19;2090118;28;19933;-50
2022/06/28 04:16:24;;;;;;;;;;;;;;;29.39;46.84;98448.13;2092226;28;19935;-51
2022/06/28 04:17:25;;;;;;;;;;;;;;;29.40;47.12;98449.75;2091961;28;19931;-47
2022/06/28 04:18:26;;;;;;;;;;;;;;;29.40;47.06;98454.41;2091986;28;20412;-51
2022/06/28 04:19:27;;;;;;;;;;;;;;;29.40;47.07;98451.66;2091472;28;19928;-50
2022/06/28 04:20:28;;;;;;;;;;;;;;;29.40;46.97;98447.00;2093255;28;19931;-51
2022/06/28 04:21:29;;;;;;;;;;;;;;;29.39;46.85;98437.19;2092754;28;19928;-49
2022/06/28 04:22:30;;;;;;;;;;;;;;;29.40;47.10;98438.81;2087178;28;19928;-48
2022/06/28 04:23:31;;;;;;;;;;;;;;;29.39;46.99;98441.81;2090663;28;19928;-50
2022/06/28 04:24:33;;;;;;;;;;;;;;;29.39;47.07;98436.34;2088023;28;20363;-50
2022/06/28 04:25:33;;;;;;;;;;;;;;;29.39;47.04;98447.28;2092465;28;19929;-49
2022/06/28 04:26:35;;;;;;;;;;;;;;;29.40;46.97;98452.47;2092499;28;19975;-50
2022/06/28 04:27:37;;;;;;;;;;;;;;;29.39;47.01;98447.28;2092956;28;19976;-51
2022/06/28 04:28:39;;;;;;;;;;;;;;;29.38;46.99;98442.91;2089181;28;21092;-48
2022/06/28 04:29:41;;;;;;;;;;;;;;;29.38;47.06;98441.00;2088313;28;19935;-51
2022/06/28 04:30:41;;;;;;;;;;;;;;;29.39;46.99;98453.59;2090061;28;19928;-50
2022/06/28 04:31:43;;;;;;;;;;;;;;;29.39;46.99;98445.38;2089405;28;20616;-49
2022/06/28 04:32:44;;;;;;;;;;;;;;;29.39;47.00;98447.28;2091015;28;20263;-51
2022/06/28 04:33:45;;;;;;;;;;;;;;;29.38;47.02;98437.47;2091322;28;19939;-45
2022/06/28 04:34:46;;;;;;;;;;;;;;;29.38;46.92;98435.53;2091468;28;19935;-49
2022/06/28 04:35:47;;;;;;;;;;;;;;;29.37;46.88;98433.91;2091500;28;19934;-50
2022/06/28 04:36:48;;;;;;;;;;;;;;;29.38;46.96;98446.47;2088219;28;19929;-51
2022/06/28 04:37:50;;;;;;;;;;;;;;;29.39;47.05;98447.28;2085044;28;19972;-51
2022/06/28 04:38:50;;;;;;;;;;;;;;;29.38;47.00;98440.19;2077540;28;19924;-47
2022/06/28 04:39:52;;;;;;;;;;;;;;;29.37;46.88;98430.38;2090516;28;19971;-50
2022/06/28 04:40:53;;;;;;;;;;;;;;;29.37;47.08;98423.00;2089778;28;19928;-50
2022/06/28 04:41:54;;;;;;;;;;;;;;;29.37;47.12;98427.63;2092408;28;19932;-46
2022/06/28 04:42:56;;;;;;;;;;;;;;;29.37;47.13;98423.00;2092813;28;19935;-49
2022/06/28 04:43:58;;;;;;;;;;;;;;;29.37;47.03;98416.72;2092882;28;19931;-48
2022/06/28 04:44:59;;;;;;;;;;;;;;;29.36;47.03;98415.91;2088992;28;19928;-50
2022/06/28 04:46:00;;;;;;;;;;;;;;;29.37;47.05;98413.97;2093351;28;20355;-49
2022/06/28 04:47:02;;;;;;;;;;;;;;;29.37;47.05;98411.25;2092507;28;19928;-52
2022/06/28 04:48:03;;;;;;;;;;;;;;;29.36;47.08;98410.44;2090618;28;19928;-48
2022/06/28 04:49:04;;;;;;;;;;;;;;;29.37;47.12;98430.38;2091080;28;19936;-48
2022/06/28 04:50:05;;;;;;;;;;;;;;;29.37;46.91;98450.31;2092948;28;21453;-49
2022/06/28 04:51:11;;;;;;;;;;;;;;;29.36;47.07;98465.06;2092198;28;19924;-50
2022/06/28 04:52:13;;;;;;;;;;;;;;;29.37;47.06;98488.56;2089515;28;20462;-47
2022/06/28 04:53:14;;;;;;;;;;;;;;;29.37;46.95;98498.66;2087803;28;19956;-50
2022/06/28 04:54:15;;;;;;;;;;;;;;;29.37;47.23;98506.88;2089000;28;19928;-48
2022/06/28 04:55:16;;;;;;;;;;;;;;;29.36;47.14;98513.41;2086234;28;20302;-52
2022/06/28 04:56:18;;;;;;;;;;;;;;;29.34;46.99;98521.91;2083703;28;19936;-47
2022/06/28 04:57:18;;;;;;;;;;;;;;;29.36;47.17;98535.25;2090110;28;19931;-50
2022/06/28 04:58:21;;;;;;;;;;;;;;;29.35;46.93;98542.66;2090812;28;19932;-47
2022/06/28 04:59:22;;;;;;;;;;;;;;;29.36;47.01;98538.00;2090779;28;19936;-49
2022/06/28 05:00:24;;;;;;;;;;;;;;;29.35;47.21;98528.97;2090016;28;19934;-48
2022/06/28 05:01:25;;;;;;;;;;;;;;;29.34;47.31;98500.03;2092259;28;20366;-47
2022/06/28 05:02:26;;;;;;;;;;;;;;;29.34;46.93;98485.56;2092086;28;19956;-49
2022/06/28 05:03:28;;;;;;;;;;;;;;;29.33;47.01;98487.47;2088366;28;19995;-47
2022/06/28 05:04:29;;;;;;;;;;;;;;;29.35;46.93;98479.00;2090271;28;19983;-46
2022/06/28 05:05:31;;;;;;;;;;;;;;;29.35;47.13;98484.47;2084477;28;19936;-53
2022/06/28 05:06:31;;;;;;;;;;;;;;;29.35;47.07;98484.47;2084283;28;19975;-49
2022/06/28 05:07:33;;;;;;;;;;;;;;;29.35;47.20;98489.94;2085652;28;20977;-52
2022/06/28 05:08:33;;;;;;;;;;;;;;;29.35;46.94;98492.66;2089182;28;19951;-47
2022/06/28 05:09:35;;;;;;;;;;;;;;;29.35;46.97;98489.94;2087330;28;19932;-51
2022/06/28 05:10:36;;;;;;;;;;;;;;;29.34;47.02;98474.66;2089209;28;20245;-51
2022/06/28 05:11:38;;;;;;;;;;;;;;;29.34;47.18;98478.19;2089679;28;19932;-52
2022/06/28 05:12:39;;;;;;;;;;;;;;;29.34;47.11;98480.91;2092148;28;20482;-49
2022/06/28 05:13:42;;;;;;;;;;;;;;;29.34;47.07;98485.56;2089491;28;19928;-50
2022/06/28 05:14:42;;;;;;;;;;;;;;;29.35;47.01;98484.47;2090758;28;19928;-51
2022/06/28 05:15:44;;;;;;;;;;;;;;;29.34;47.02;98482.84;2085537;28;19933;-51
2022/06/28 05:16:45;;;;;;;;;;;;;;;29.32;47.16;98466.72;2090723;28;20629;-49
2022/06/28 05:17:47;;;;;;;;;;;;;;;29.33;47.09;98456.59;2092407;28;19972;-49
2022/06/28 05:18:47;;;;;;;;;;;;;;;29.32;46.95;98460.44;2090715;28;20552;-47
2022/06/28 05:19:50;;;;;;;;;;;;;;;29.34;47.14;98463.72;2090417;28;19928;-51
2022/06/28 05:20:51;;;;;;;;;;;;;;;29.34;47.15;98466.44;2089493;28;19963;-49
2022/06/28 05:21:53;;;;;;;;;;;;;;;29.32;47.06;98454.97;2088094;28;20317;-49
2022/06/28 05:22:53;;;;;;;;;;;;;;;29.33;46.98;98470.25;2089075;28;19924;-47
2022/06/28 05:23:55;;;;;;;;;;;;;;;29.33;47.11;98481.19;2092907;28;20469;-50
2022/06/28 05:24:55;;;;;;;;;;;;;;;29.33;47.11;98487.47;2090143;28;19931;-50
2022/06/28 05:25:57;;;;;;;;;;;;;;;29.35;47.08;98487.19;2092183;28;19940;-47
2022/06/28 05:26:58;;;;;;;;;;;;;;;29.33;47.03;98484.72;2088692;28;20464;-50